Terminal Aerodrome Forecast
Issued by NWS

Home | Current Version | Previous Version | Text Only | Print | Product List | Glossary On
Versions: 1 2 3 4 5 6 7 8 9 10 11 12 13 14 15 16 17 18 19 20
000
FTUS43 KGRB 022300
TAFCWA
TAF
KCWA 022336Z 0300/0324 26006KT P6SM SKC
     FM030500 VRB03KT 6SM BR SKC
     FM031600 19007KT P6SM FEW120 BKN200
      AMD LTD TO CLD VIS AND WIND 0303/0311=

USA.gov is the U.S. government's official web portal to all federal, state and local government web resources and services.